Schenley, Pennsylvania
Current Conditions -  °F | °C
As of 11:55 AM on Saturday 22 Nov 2014 (Local Time) from KBTP Reporting Station
Overcast Overcast  
Wind Chill: 24°   Ceiling: 1300
Heat Index: 30°   Visibility: 4mi
Dew Point: 25°   Wind: 6mph
Humidity: 80%   Direction: 190°S
Pressure: 30.23"   Gusts: NA
Location:  40.68°N, 79.66°W
Report Text: KBTP 221655Z AUTO 19005KT 4SM OVC013 M01/M04 A3023 RMK AO1 P0002
Loading
Personal Weather Stations






























Interactive Weather Map New forecast layout! Learn more

10-Day Weather Forecast

Advertisements
Track Severe Weather on mobile